sensor_id;sensor_type;location;lat;lon;timestamp;temperature;humidity
9201;DHT22;4635;48.686;9.008;2022-07-17T00:01:37;16.60;1.00
9201;DHT22;4635;48.686;9.008;2022-07-17T00:04:07;16.50;1.00
9201;DHT22;4635;48.686;9.008;2022-07-17T00:06:40;16.50;1.00
9201;DHT22;4635;48.686;9.008;2022-07-17T00:09:13;16.40;1.00
9201;DHT22;4635;48.686;9.008;2022-07-17T00:11:44;16.40;1.00
9201;DHT22;4635;48.686;9.008;2022-07-17T00:14:17;16.40;1.00
9201;DHT22;4635;48.686;9.008;2022-07-17T00:16:46;16.40;1.00
9201;DHT22;4635;48.686;9.008;2022-07-17T00:19:27;16.30;1.00
9201;DHT22;4635;48.686;9.008;2022-07-17T00:21:54;16.30;1.00
9201;DHT22;4635;48.686;9.008;2022-07-17T00:24:21;16.30;1.00
9201;DHT22;4635;48.686;9.008;2022-07-17T00:26:52;16.20;1.00
9201;DHT22;4635;48.686;9.008;2022-07-17T00:29:28;16.20;1.00
9201;DHT22;4635;48.686;9.008;2022-07-17T00:32:06;16.20;1.00
9201;DHT22;4635;48.686;9.008;2022-07-17T00:34:35;16.30;1.00
9201;DHT22;4635;48.686;9.008;2022-07-17T00:37:02;16.30;28.60
9201;DHT22;4635;48.686;9.008;2022-07-17T00:39:32;16.30;1.00
9201;DHT22;4635;48.686;9.008;2022-07-17T00:42:00;16.30;1.00
9201;DHT22;4635;48.686;9.008;2022-07-17T00:44:47;16.30;1.00
9201;DHT22;4635;48.686;9.008;2022-07-17T00:47:18;16.30;1.00
9201;DHT22;4635;48.686;9.008;2022-07-17T00:49:47;16.20;96.90
9201;DHT22;4635;48.686;9.008;2022-07-17T00:52:29;16.10;99.90
9201;DHT22;4635;48.686;9.008;2022-07-17T00:55:18;16.00;99.90
9201;DHT22;4635;48.686;9.008;2022-07-17T00:58:18;16.00;4.20
9201;DHT22;4635;48.686;9.008;2022-07-17T01:00:48;16.10;99.90
9201;DHT22;4635;48.686;9.008;2022-07-17T01:03:15;16.00;23.50
9201;DHT22;4635;48.686;9.008;2022-07-17T01:05:46;16.10;1.00
9201;DHT22;4635;48.686;9.008;2022-07-17T01:08:20;16.10;31.40
9201;DHT22;4635;48.686;9.008;2022-07-17T01:10:47;16.00;76.70
9201;DHT22;4635;48.686;9.008;2022-07-17T01:13:16;16.00;29.90
9201;DHT22;4635;48.686;9.008;2022-07-17T01:16:01;16.00;45.60
9201;DHT22;4635;48.686;9.008;2022-07-17T01:18:34;15.80;99.90
9201;DHT22;4635;48.686;9.008;2022-07-17T01:24:47;15.70;99.90
9201;DHT22;4635;48.686;9.008;2022-07-17T01:27:16;15.60;99.90
9201;DHT22;4635;48.686;9.008;2022-07-17T01:29:57;15.60;99.90
9201;DHT22;4635;48.686;9.008;2022-07-17T01:32:41;15.50;99.90
9201;DHT22;4635;48.686;9.008;2022-07-17T01:35:32;15.50;99.90
9201;DHT22;4635;48.686;9.008;2022-07-17T01:38:04;15.50;99.90
9201;DHT22;4635;48.686;9.008;2022-07-17T01:40:36;15.50;1.00
9201;DHT22;4635;48.686;9.008;2022-07-17T01:43:07;15.50;99.90
9201;DHT22;4635;48.686;9.008;2022-07-17T01:45:37;15.50;99.90
9201;DHT22;4635;48.686;9.008;2022-07-17T01:48:26;15.40;25.50
9201;DHT22;4635;48.686;9.008;2022-07-17T01:50:58;15.40;60.20
9201;DHT22;4635;48.686;9.008;2022-07-17T01:53:28;15.40;97.90
9201;DHT22;4635;48.686;9.008;2022-07-17T01:56:03;15.30;99.90
9201;DHT22;4635;48.686;9.008;2022-07-17T01:58:33;15.30;99.90
9201;DHT22;4635;48.686;9.008;2022-07-17T02:01:02;15.20;99.90
9201;DHT22;4635;48.686;9.008;2022-07-17T02:03:31;15.20;99.90
9201;DHT22;4635;48.686;9.008;2022-07-17T02:06:03;15.20;99.90
9201;DHT22;4635;48.686;9.008;2022-07-17T02:08:31;15.20;99.90
9201;DHT22;4635;48.686;9.008;2022-07-17T02:11:09;15.20;99.90
9201;DHT22;4635;48.686;9.008;2022-07-17T02:13:36;15.10;99.90
9201;DHT22;4635;48.686;9.008;2022-07-17T02:16:14;15.10;1.00
9201;DHT22;4635;48.686;9.008;2022-07-17T02:18:41;15.00;99.90
9201;DHT22;4635;48.686;9.008;2022-07-17T02:21:13;15.00;99.90
9201;DHT22;4635;48.686;9.008;2022-07-17T02:23:59;15.00;1.00
9201;DHT22;4635;48.686;9.008;2022-07-17T02:26:51;14.90;1.00
9201;DHT22;4635;48.686;9.008;2022-07-17T02:29:25;14.80;1.00
9201;DHT22;4635;48.686;9.008;2022-07-17T02:31:56;14.60;99.90
9201;DHT22;4635;48.686;9.008;2022-07-17T02:34:25;14.30;1.00
9201;DHT22;4635;48.686;9.008;2022-07-17T02:36:55;14.20;1.00
9201;DHT22;4635;48.686;9.008;2022-07-17T02:39:29;14.20;99.90
9201;DHT22;4635;48.686;9.008;2022-07-17T02:42:08;14.10;8.60
9201;DHT22;4635;48.686;9.008;2022-07-17T02:44:52;14.00;99.90
9201;DHT22;4635;48.686;9.008;2022-07-17T02:47:35;13.90;1.00
9201;DHT22;4635;48.686;9.008;2022-07-17T02:50:19;14.00;42.10
9201;DHT22;4635;48.686;9.008;2022-07-17T02:52:56;14.00;99.90
9201;DHT22;4635;48.686;9.008;2022-07-17T02:55:59;14.00;99.90
9201;DHT22;4635;48.686;9.008;2022-07-17T02:58:48;14.00;99.90
9201;DHT22;4635;48.686;9.008;2022-07-17T03:01:20;13.90;1.00
9201;DHT22;4635;48.686;9.008;2022-07-17T03:04:04;14.00;99.90
9201;DHT22;4635;48.686;9.008;2022-07-17T03:07:03;14.00;15.10
9201;DHT22;4635;48.686;9.008;2022-07-17T03:09:54;13.90;99.90
9201;DHT22;4635;48.686;9.008;2022-07-17T03:12:54;13.90;1.00
9201;DHT22;4635;48.686;9.008;2022-07-17T03:25:25;13.90;99.90
9201;DHT22;4635;48.686;9.008;2022-07-17T03:31:07;13.80;99.90
9201;DHT22;4635;48.686;9.008;2022-07-17T03:34:08;13.70;99.90
9201;DHT22;4635;48.686;9.008;2022-07-17T03:37:35;13.70;99.90
9201;DHT22;4635;48.686;9.008;2022-07-17T03:54:04;13.80;1.00
9201;DHT22;4635;48.686;9.008;2022-07-17T03:56:36;13.80;1.00
9201;DHT22;4635;48.686;9.008;2022-07-17T03:59:19;13.90;1.00
9201;DHT22;4635;48.686;9.008;2022-07-17T04:01:47;13.80;1.00
9201;DHT22;4635;48.686;9.008;2022-07-17T04:04:19;13.80;99.90
9201;DHT22;4635;48.686;9.008;2022-07-17T04:06:49;13.80;1.00
9201;DHT22;4635;48.686;9.008;2022-07-17T04:12:58;13.80;1.00
9201;DHT22;4635;48.686;9.008;2022-07-17T04:19:06;13.60;1.00
9201;DHT22;4635;48.686;9.008;2022-07-17T04:21:37;13.60;1.00
9201;DHT22;4635;48.686;9.008;2022-07-17T04:24:44;13.70;1.00
9201;DHT22;4635;48.686;9.008;2022-07-17T04:27:42;13.70;1.00
9201;DHT22;4635;48.686;9.008;2022-07-17T04:30:39;13.80;99.90
9201;DHT22;4635;48.686;9.008;2022-07-17T04:33:18;13.70;1.00
9201;DHT22;4635;48.686;9.008;2022-07-17T04:35:53;13.80;1.00
9201;DHT22;4635;48.686;9.008;2022-07-17T04:38:21;13.90;99.90
9201;DHT22;4635;48.686;9.008;2022-07-17T04:40:53;13.90;1.00
9201;DHT22;4635;48.686;9.008;2022-07-17T04:43:20;14.00;99.90
9201;DHT22;4635;48.686;9.008;2022-07-17T04:52:55;14.10;1.00
9201;DHT22;4635;48.686;9.008;2022-07-17T04:55:31;14.10;99.90
9201;DHT22;4635;48.686;9.008;2022-07-17T04:58:20;14.20;1.00
9201;DHT22;4635;48.686;9.008;2022-07-17T05:01:02;14.30;1.00
9201;DHT22;4635;48.686;9.008;2022-07-17T05:03:41;14.30;54.80
9201;DHT22;4635;48.686;9.008;2022-07-17T05:06:10;14.30;99.90
9201;DHT22;4635;48.686;9.008;2022-07-17T05:11:59;14.30;99.90
9201;DHT22;4635;48.686;9.008;2022-07-17T05:14:49;14.60;1.00
9201;DHT22;4635;48.686;9.008;2022-07-17T05:17:27;14.50;1.00
9201;DHT22;4635;48.686;9.008;2022-07-17T05:20:18;14.60;1.00
9201;DHT22;4635;48.686;9.008;2022-07-17T05:23:01;14.80;99.90
9201;DHT22;4635;48.686;9.008;2022-07-17T05:25:50;14.90;1.00
9201;DHT22;4635;48.686;9.008;2022-07-17T05:32:41;15.10;99.90
9201;DHT22;4635;48.686;9.008;2022-07-17T05:35:23;15.20;1.00
9201;DHT22;4635;48.686;9.008;2022-07-17T05:37:51;15.30;1.00
9201;DHT22;4635;48.686;9.008;2022-07-17T05:43:46;15.50;1.00
9201;DHT22;4635;48.686;9.008;2022-07-17T05:46:39;16.30;1.00
9201;DHT22;4635;48.686;9.008;2022-07-17T05:49:09;17.50;1.00
9201;DHT22;4635;48.686;9.008;2022-07-17T05:51:38;18.20;1.00
9201;DHT22;4635;48.686;9.008;2022-07-17T05:54:24;18.20;1.00
9201;DHT22;4635;48.686;9.008;2022-07-17T05:56:58;18.50;1.00
9201;DHT22;4635;48.686;9.008;2022-07-17T05:59:29;18.30;1.00
9201;DHT22;4635;48.686;9.008;2022-07-17T06:01:57;18.00;1.00
9201;DHT22;4635;48.686;9.008;2022-07-17T06:04:41;17.60;1.00
9201;DHT22;4635;48.686;9.008;2022-07-17T06:07:22;17.20;99.90
9201;DHT22;4635;48.686;9.008;2022-07-17T06:09:53;17.10;99.90
9201;DHT22;4635;48.686;9.008;2022-07-17T06:16:14;17.10;99.90
9201;DHT22;4635;48.686;9.008;2022-07-17T06:19:05;17.20;99.90
9201;DHT22;4635;48.686;9.008;2022-07-17T06:28:13;17.60;99.90
9201;DHT22;4635;48.686;9.008;2022-07-17T06:30:58;17.60;99.90
9201;DHT22;4635;48.686;9.008;2022-07-17T06:34:26;17.50;99.90
9201;DHT22;4635;48.686;9.008;2022-07-17T07:03:13;18.80;99.90
9201;DHT22;4635;48.686;9.008;2022-07-17T07:05:42;18.80;99.90
9201;DHT22;4635;48.686;9.008;2022-07-17T07:08:35;18.90;99.90
9201;DHT22;4635;48.686;9.008;2022-07-17T07:11:05;18.90;1.00
9201;DHT22;4635;48.686;9.008;2022-07-17T07:13:33;19.10;1.00
9201;DHT22;4635;48.686;9.008;2022-07-17T07:16:00;19.30;1.00
9201;DHT22;4635;48.686;9.008;2022-07-17T07:18:29;19.40;1.00
9201;DHT22;4635;48.686;9.008;2022-07-17T07:20:58;19.50;1.00
9201;DHT22;4635;48.686;9.008;2022-07-17T07:23:29;19.60;1.00
9201;DHT22;4635;48.686;9.008;2022-07-17T07:25:57;19.70;1.00
9201;DHT22;4635;48.686;9.008;2022-07-17T07:28:27;19.90;1.00
9201;DHT22;4635;48.686;9.008;2022-07-17T07:31:02;20.00;1.00
9201;DHT22;4635;48.686;9.008;2022-07-17T07:33:46;20.10;99.90
9201;DHT22;4635;48.686;9.008;2022-07-17T07:39:15;20.30;99.90
9201;DHT22;4635;48.686;9.008;2022-07-17T07:41:50;20.50;99.90
9201;DHT22;4635;48.686;9.008;2022-07-17T07:44:43;20.70;1.00
9201;DHT22;4635;48.686;9.008;2022-07-17T07:47:13;20.80;1.00
9201;DHT22;4635;48.686;9.008;2022-07-17T07:49:44;21.00;99.90
9201;DHT22;4635;48.686;9.008;2022-07-17T07:52:11;21.20;99.90
9201;DHT22;4635;48.686;9.008;2022-07-17T07:54:40;21.50;1.00
9201;DHT22;4635;48.686;9.008;2022-07-17T07:57:23;21.50;1.00
9201;DHT22;4635;48.686;9.008;2022-07-17T07:59:53;21.60;99.90
9201;DHT22;4635;48.686;9.008;2022-07-17T08:02:21;21.50;99.90
9201;DHT22;4635;48.686;9.008;2022-07-17T08:05:06;21.60;99.90
9201;DHT22;4635;48.686;9.008;2022-07-17T08:07:49;21.80;94.50
9201;DHT22;4635;48.686;9.008;2022-07-17T08:10:30;22.10;1.00
9201;DHT22;4635;48.686;9.008;2022-07-17T08:13:03;22.20;99.90
9201;DHT22;4635;48.686;9.008;2022-07-17T08:15:32;22.40;99.90
9201;DHT22;4635;48.686;9.008;2022-07-17T08:18:01;22.40;99.90
9201;DHT22;4635;48.686;9.008;2022-07-17T08:20:44;22.30;50.60
9201;DHT22;4635;48.686;9.008;2022-07-17T08:23:14;22.40;99.90
9201;DHT22;4635;48.686;9.008;2022-07-17T08:25:57;22.70;1.00
9201;DHT22;4635;48.686;9.008;2022-07-17T08:28:31;23.50;1.00
9201;DHT22;4635;48.686;9.008;2022-07-17T08:31:00;24.80;99.90
9201;DHT22;4635;48.686;9.008;2022-07-17T08:33:51;26.10;1.00
9201;DHT22;4635;48.686;9.008;2022-07-17T08:36:23;27.40;99.90
9201;DHT22;4635;48.686;9.008;2022-07-17T08:38:52;28.40;99.90
9201;DHT22;4635;48.686;9.008;2022-07-17T08:41:21;28.20;99.90
9201;DHT22;4635;48.686;9.008;2022-07-17T08:43:51;27.80;99.90
9201;DHT22;4635;48.686;9.008;2022-07-17T08:46:22;27.30;1.00
9201;DHT22;4635;48.686;9.008;2022-07-17T08:51:57;27.90;1.00
9201;DHT22;4635;48.686;9.008;2022-07-17T08:54:28;29.60;22.90
9201;DHT22;4635;48.686;9.008;2022-07-17T08:56:59;30.30;2.10
9201;DHT22;4635;48.686;9.008;2022-07-17T08:59:28;31.40;1.00
9201;DHT22;4635;48.686;9.008;2022-07-17T09:01:58;32.00;1.00
9201;DHT22;4635;48.686;9.008;2022-07-17T09:04:30;30.40;1.00
9201;DHT22;4635;48.686;9.008;2022-07-17T09:07:04;30.30;99.90
9201;DHT22;4635;48.686;9.008;2022-07-17T09:09:34;29.30;99.90
9201;DHT22;4635;48.686;9.008;2022-07-17T09:12:02;29.50;99.90
9201;DHT22;4635;48.686;9.008;2022-07-17T09:14:37;29.20;1.00
9201;DHT22;4635;48.686;9.008;2022-07-17T09:17:07;28.70;1.00
9201;DHT22;4635;48.686;9.008;2022-07-17T09:19:39;29.80;1.00
9201;DHT22;4635;48.686;9.008;2022-07-17T09:22:10;29.60;1.00
9201;DHT22;4635;48.686;9.008;2022-07-17T09:24:44;30.10;1.00
9201;DHT22;4635;48.686;9.008;2022-07-17T09:27:29;29.90;99.90
9201;DHT22;4635;48.686;9.008;2022-07-17T09:29:58;30.60;99.90
9201;DHT22;4635;48.686;9.008;2022-07-17T09:32:30;30.30;1.00
9201;DHT22;4635;48.686;9.008;2022-07-17T09:35:00;30.20;1.00
9201;DHT22;4635;48.686;9.008;2022-07-17T09:37:33;30.10;58.40
9201;DHT22;4635;48.686;9.008;2022-07-17T09:40:11;30.20;99.90
9201;DHT22;4635;48.686;9.008;2022-07-17T09:43:05;28.90;13.80
9201;DHT22;4635;48.686;9.008;2022-07-17T09:45:38;28.90;12.00
9201;DHT22;4635;48.686;9.008;2022-07-17T09:48:11;28.50;99.90
9201;DHT22;4635;48.686;9.008;2022-07-17T09:50:43;29.20;30.80
9201;DHT22;4635;48.686;9.008;2022-07-17T09:53:12;28.50;81.80
9201;DHT22;4635;48.686;9.008;2022-07-17T09:55:40;28.30;99.90
9201;DHT22;4635;48.686;9.008;2022-07-17T09:58:09;28.00;99.90
9201;DHT22;4635;48.686;9.008;2022-07-17T10:00:39;29.20;53.20
9201;DHT22;4635;48.686;9.008;2022-07-17T10:03:16;31.00;85.20
9201;DHT22;4635;48.686;9.008;2022-07-17T10:05:58;32.20;5.80
9201;DHT22;4635;48.686;9.008;2022-07-17T10:08:30;31.80;99.90
9201;DHT22;4635;48.686;9.008;2022-07-17T10:11:01;30.60;99.90
9201;DHT22;4635;48.686;9.008;2022-07-17T10:13:29;31.90;99.90
9201;DHT22;4635;48.686;9.008;2022-07-17T10:16:06;32.90;99.90
9201;DHT22;4635;48.686;9.008;2022-07-17T10:18:35;32.40;99.90
9201;DHT22;4635;48.686;9.008;2022-07-17T10:21:10;32.70;99.90
9201;DHT22;4635;48.686;9.008;2022-07-17T10:23:42;33.90;1.00
9201;DHT22;4635;48.686;9.008;2022-07-17T10:26:16;34.40;1.00
9201;DHT22;4635;48.686;9.008;2022-07-17T10:28:47;35.40;1.00
9201;DHT22;4635;48.686;9.008;2022-07-17T10:31:24;35.50;1.00
9201;DHT22;4635;48.686;9.008;2022-07-17T10:33:56;31.50;1.00
9201;DHT22;4635;48.686;9.008;2022-07-17T10:36:34;30.60;1.00
9201;DHT22;4635;48.686;9.008;2022-07-17T10:39:29;31.50;99.90
9201;DHT22;4635;48.686;9.008;2022-07-17T10:41:58;28.60;1.00
9201;DHT22;4635;48.686;9.008;2022-07-17T10:44:26;28.80;1.00
9201;DHT22;4635;48.686;9.008;2022-07-17T10:47:07;30.00;1.00
9201;DHT22;4635;48.686;9.008;2022-07-17T10:49:36;32.70;99.90
9201;DHT22;4635;48.686;9.008;2022-07-17T10:52:04;33.90;1.00
9201;DHT22;4635;48.686;9.008;2022-07-17T10:54:34;32.90;95.90
9201;DHT22;4635;48.686;9.008;2022-07-17T10:57:01;33.50;1.00
9201;DHT22;4635;48.686;9.008;2022-07-17T10:59:29;34.50;99.90
9201;DHT22;4635;48.686;9.008;2022-07-17T11:01:57;35.40;1.00
9201;DHT22;4635;48.686;9.008;2022-07-17T11:04:36;36.30;99.90
9201;DHT22;4635;48.686;9.008;2022-07-17T11:07:08;37.00;1.00
9201;DHT22;4635;48.686;9.008;2022-07-17T11:09:52;38.00;99.90
9201;DHT22;4635;48.686;9.008;2022-07-17T11:12:30;38.20;1.00
9201;DHT22;4635;48.686;9.008;2022-07-17T11:15:02;37.30;1.00
9201;DHT22;4635;48.686;9.008;2022-07-17T11:17:31;36.60;1.00
9201;DHT22;4635;48.686;9.008;2022-07-17T11:19:59;36.60;99.90
9201;DHT22;4635;48.686;9.008;2022-07-17T11:22:26;35.70;99.90
9201;DHT22;4635;48.686;9.008;2022-07-17T11:24:59;35.60;1.00
9201;DHT22;4635;48.686;9.008;2022-07-17T11:27:29;36.50;99.90
9201;DHT22;4635;48.686;9.008;2022-07-17T11:29:58;36.90;10.80
9201;DHT22;4635;48.686;9.008;2022-07-17T11:32:32;37.50;99.90
9201;DHT22;4635;48.686;9.008;2022-07-17T11:35:01;34.50;99.90
9201;DHT22;4635;48.686;9.008;2022-07-17T11:37:30;34.10;99.90
9201;DHT22;4635;48.686;9.008;2022-07-17T11:40:18;35.50;91.90
9201;DHT22;4635;48.686;9.008;2022-07-17T11:42:46;35.10;4.30
9201;DHT22;4635;48.686;9.008;2022-07-17T11:45:13;36.00;99.90
9201;DHT22;4635;48.686;9.008;2022-07-17T11:47:44;34.70;99.90
9201;DHT22;4635;48.686;9.008;2022-07-17T11:50:14;35.00;1.00
9201;DHT22;4635;48.686;9.008;2022-07-17T11:52:47;36.60;99.90
9201;DHT22;4635;48.686;9.008;2022-07-17T11:55:18;36.20;99.90
9201;DHT22;4635;48.686;9.008;2022-07-17T11:57:47;34.10;99.90
9201;DHT22;4635;48.686;9.008;2022-07-17T12:00:20;32.10;1.00
9201;DHT22;4635;48.686;9.008;2022-07-17T12:02:58;31.70;1.00
9201;DHT22;4635;48.686;9.008;2022-07-17T12:05:30;31.10;99.90
9201;DHT22;4635;48.686;9.008;2022-07-17T12:08:07;28.90;1.00
9201;DHT22;4635;48.686;9.008;2022-07-17T12:10:37;29.10;1.00
9201;DHT22;4635;48.686;9.008;2022-07-17T12:13:08;30.60;1.00
9201;DHT22;4635;48.686;9.008;2022-07-17T12:15:40;32.40;99.90
9201;DHT22;4635;48.686;9.008;2022-07-17T12:18:22;33.00;1.00
9201;DHT22;4635;48.686;9.008;2022-07-17T12:20:51;35.10;18.10
9201;DHT22;4635;48.686;9.008;2022-07-17T12:23:27;33.30;1.00
9201;DHT22;4635;48.686;9.008;2022-07-17T12:26:05;34.00;1.00
9201;DHT22;4635;48.686;9.008;2022-07-17T12:28:35;35.60;97.40
9201;DHT22;4635;48.686;9.008;2022-07-17T12:31:04;35.10;1.00
9201;DHT22;4635;48.686;9.008;2022-07-17T12:33:37;36.20;1.00
9201;DHT22;4635;48.686;9.008;2022-07-17T12:36:06;38.10;1.00
9201;DHT22;4635;48.686;9.008;2022-07-17T12:38:37;38.90;1.00
9201;DHT22;4635;48.686;9.008;2022-07-17T12:41:06;38.00;99.90
9201;DHT22;4635;48.686;9.008;2022-07-17T12:43:37;37.70;1.00
9201;DHT22;4635;48.686;9.008;2022-07-17T12:46:04;38.80;77.20
9201;DHT22;4635;48.686;9.008;2022-07-17T12:48:32;39.50;4.50
9201;DHT22;4635;48.686;9.008;2022-07-17T12:51:02;39.30;1.00
9201;DHT22;4635;48.686;9.008;2022-07-17T12:53:40;39.60;1.00
9201;DHT22;4635;48.686;9.008;2022-07-17T12:56:17;39.50;99.90
9201;DHT22;4635;48.686;9.008;2022-07-17T12:58:58;40.50;1.00
9201;DHT22;4635;48.686;9.008;2022-07-17T13:01:39;41.20;99.90
9201;DHT22;4635;48.686;9.008;2022-07-17T13:04:06;41.70;1.00
9201;DHT22;4635;48.686;9.008;2022-07-17T13:06:34;40.90;1.00
9201;DHT22;4635;48.686;9.008;2022-07-17T13:09:02;40.60;91.70
9201;DHT22;4635;48.686;9.008;2022-07-17T13:11:33;40.70;99.90
9201;DHT22;4635;48.686;9.008;2022-07-17T13:14:00;40.20;99.90
9201;DHT22;4635;48.686;9.008;2022-07-17T13:16:45;40.40;1.00
9201;DHT22;4635;48.686;9.008;2022-07-17T13:19:14;41.00;1.00
9201;DHT22;4635;48.686;9.008;2022-07-17T13:21:42;40.60;1.00
9201;DHT22;4635;48.686;9.008;2022-07-17T13:24:10;40.60;1.00
9201;DHT22;4635;48.686;9.008;2022-07-17T13:26:42;39.10;1.00
9201;DHT22;4635;48.686;9.008;2022-07-17T13:29:10;37.70;1.00
9201;DHT22;4635;48.686;9.008;2022-07-17T13:31:38;37.70;1.00
9201;DHT22;4635;48.686;9.008;2022-07-17T13:34:06;38.50;1.00
9201;DHT22;4635;48.686;9.008;2022-07-17T13:36:33;38.00;1.00
9201;DHT22;4635;48.686;9.008;2022-07-17T13:39:02;36.90;1.00
9201;DHT22;4635;48.686;9.008;2022-07-17T13:41:34;35.30;1.00
9201;DHT22;4635;48.686;9.008;2022-07-17T13:44:05;33.10;1.00
9201;DHT22;4635;48.686;9.008;2022-07-17T13:46:33;32.10;1.00
9201;DHT22;4635;48.686;9.008;2022-07-17T13:49:02;31.20;1.00
9201;DHT22;4635;48.686;9.008;2022-07-17T13:51:33;30.60;1.00
9201;DHT22;4635;48.686;9.008;2022-07-17T13:54:03;29.80;1.00
9201;DHT22;4635;48.686;9.008;2022-07-17T13:56:32;30.00;1.00
9201;DHT22;4635;48.686;9.008;2022-07-17T13:58:59;31.50;1.00
9201;DHT22;4635;48.686;9.008;2022-07-17T14:01:30;32.70;1.00
9201;DHT22;4635;48.686;9.008;2022-07-17T14:04:02;33.30;1.00
9201;DHT22;4635;48.686;9.008;2022-07-17T14:06:34;33.10;1.00
9201;DHT22;4635;48.686;9.008;2022-07-17T14:09:01;32.50;1.00
9201;DHT22;4635;48.686;9.008;2022-07-17T14:11:32;31.60;1.00
9201;DHT22;4635;48.686;9.008;2022-07-17T14:14:02;31.00;1.00
9201;DHT22;4635;48.686;9.008;2022-07-17T14:16:37;29.90;1.00
9201;DHT22;4635;48.686;9.008;2022-07-17T14:19:06;29.40;1.00
9201;DHT22;4635;48.686;9.008;2022-07-17T14:21:36;29.00;1.00
9201;DHT22;4635;48.686;9.008;2022-07-17T14:24:10;29.00;1.00
9201;DHT22;4635;48.686;9.008;2022-07-17T14:26:38;28.80;1.00
9201;DHT22;4635;48.686;9.008;2022-07-17T14:29:10;28.90;1.00
9201;DHT22;4635;48.686;9.008;2022-07-17T14:31:41;29.00;1.00
9201;DHT22;4635;48.686;9.008;2022-07-17T14:34:10;28.90;1.00
9201;DHT22;4635;48.686;9.008;2022-07-17T14:36:38;28.80;1.00
9201;DHT22;4635;48.686;9.008;2022-07-17T14:39:08;28.80;1.00
9201;DHT22;4635;48.686;9.008;2022-07-17T14:41:42;28.90;1.00
9201;DHT22;4635;48.686;9.008;2022-07-17T14:44:14;28.50;99.90
9201;DHT22;4635;48.686;9.008;2022-07-17T14:46:46;28.50;1.00
9201;DHT22;4635;48.686;9.008;2022-07-17T14:49:23;28.70;1.00
9201;DHT22;4635;48.686;9.008;2022-07-17T14:51:51;28.90;1.00
9201;DHT22;4635;48.686;9.008;2022-07-17T14:54:20;29.00;1.00
9201;DHT22;4635;48.686;9.008;2022-07-17T14:56:52;28.70;1.00
9201;DHT22;4635;48.686;9.008;2022-07-17T14:59:20;28.70;1.00
9201;DHT22;4635;48.686;9.008;2022-07-17T15:01:49;28.80;1.00
9201;DHT22;4635;48.686;9.008;2022-07-17T15:04:16;28.70;1.00
9201;DHT22;4635;48.686;9.008;2022-07-17T15:06:58;28.60;1.00
9201;DHT22;4635;48.686;9.008;2022-07-17T15:09:29;28.50;1.00
9201;DHT22;4635;48.686;9.008;2022-07-17T15:11:57;28.50;1.00
9201;DHT22;4635;48.686;9.008;2022-07-17T15:14:28;28.40;1.00
9201;DHT22;4635;48.686;9.008;2022-07-17T15:16:58;28.30;1.00
9201;DHT22;4635;48.686;9.008;2022-07-17T15:19:29;28.30;1.00
9201;DHT22;4635;48.686;9.008;2022-07-17T15:21:58;28.40;1.00
9201;DHT22;4635;48.686;9.008;2022-07-17T15:24:34;28.50;1.00
9201;DHT22;4635;48.686;9.008;2022-07-17T15:27:05;28.50;1.00
9201;DHT22;4635;48.686;9.008;2022-07-17T15:29:38;28.50;1.00
9201;DHT22;4635;48.686;9.008;2022-07-17T15:32:07;28.10;1.00
9201;DHT22;4635;48.686;9.008;2022-07-17T15:34:34;27.90;1.00
9201;DHT22;4635;48.686;9.008;2022-07-17T15:37:03;28.10;1.00
9201;DHT22;4635;48.686;9.008;2022-07-17T15:39:32;28.30;1.00
9201;DHT22;4635;48.686;9.008;2022-07-17T15:42:00;28.20;1.00
9201;DHT22;4635;48.686;9.008;2022-07-17T15:44:28;28.10;1.00
9201;DHT22;4635;48.686;9.008;2022-07-17T15:46:56;28.10;1.00
9201;DHT22;4635;48.686;9.008;2022-07-17T15:49:28;28.10;1.00
9201;DHT22;4635;48.686;9.008;2022-07-17T15:51:56;28.20;1.00
9201;DHT22;4635;48.686;9.008;2022-07-17T15:54:24;28.10;1.00
9201;DHT22;4635;48.686;9.008;2022-07-17T15:56:53;28.10;1.00
9201;DHT22;4635;48.686;9.008;2022-07-17T15:59:22;28.00;1.00
9201;DHT22;4635;48.686;9.008;2022-07-17T16:01:50;27.90;1.00
9201;DHT22;4635;48.686;9.008;2022-07-17T16:04:18;27.90;1.00
9201;DHT22;4635;48.686;9.008;2022-07-17T16:06:48;27.80;1.00
9201;DHT22;4635;48.686;9.008;2022-07-17T16:09:19;27.80;1.00
9201;DHT22;4635;48.686;9.008;2022-07-17T16:11:54;27.80;1.00
9201;DHT22;4635;48.686;9.008;2022-07-17T16:14:23;27.70;1.00
9201;DHT22;4635;48.686;9.008;2022-07-17T16:17:01;27.80;1.00
9201;DHT22;4635;48.686;9.008;2022-07-17T16:19:30;27.70;1.00
9201;DHT22;4635;48.686;9.008;2022-07-17T16:22:01;27.60;1.00
9201;DHT22;4635;48.686;9.008;2022-07-17T16:24:28;27.60;1.00
9201;DHT22;4635;48.686;9.008;2022-07-17T16:26:59;27.60;1.00
9201;DHT22;4635;48.686;9.008;2022-07-17T16:29:29;27.50;1.00
9201;DHT22;4635;48.686;9.008;2022-07-17T16:31:57;27.60;99.90
9201;DHT22;4635;48.686;9.008;2022-07-17T16:34:36;27.60;1.00
9201;DHT22;4635;48.686;9.008;2022-07-17T16:37:12;27.60;1.00
9201;DHT22;4635;48.686;9.008;2022-07-17T16:39:55;27.60;1.00
9201;DHT22;4635;48.686;9.008;2022-07-17T16:42:33;27.50;1.00
9201;DHT22;4635;48.686;9.008;2022-07-17T16:45:08;27.50;1.00
9201;DHT22;4635;48.686;9.008;2022-07-17T16:47:44;27.40;1.00
9201;DHT22;4635;48.686;9.008;2022-07-17T16:50:12;27.50;1.00
9201;DHT22;4635;48.686;9.008;2022-07-17T16:52:42;27.40;1.00
9201;DHT22;4635;48.686;9.008;2022-07-17T16:55:12;27.50;1.00
9201;DHT22;4635;48.686;9.008;2022-07-17T16:57:40;27.50;1.00
9201;DHT22;4635;48.686;9.008;2022-07-17T17:00:09;27.40;1.00
9201;DHT22;4635;48.686;9.008;2022-07-17T17:02:37;27.30;1.00
9201;DHT22;4635;48.686;9.008;2022-07-17T17:05:05;27.30;1.00
9201;DHT22;4635;48.686;9.008;2022-07-17T17:07:39;27.20;99.90
9201;DHT22;4635;48.686;9.008;2022-07-17T17:10:17;27.20;99.90
9201;DHT22;4635;48.686;9.008;2022-07-17T17:12:48;27.20;99.90
9201;DHT22;4635;48.686;9.008;2022-07-17T17:15:18;27.20;1.00
9201;DHT22;4635;48.686;9.008;2022-07-17T17:18:01;27.10;99.90
9201;DHT22;4635;48.686;9.008;2022-07-17T17:20:29;27.10;1.00
9201;DHT22;4635;48.686;9.008;2022-07-17T17:22:57;27.10;1.00
9201;DHT22;4635;48.686;9.008;2022-07-17T17:25:27;27.00;1.00
9201;DHT22;4635;48.686;9.008;2022-07-17T17:27:55;26.90;1.00
9201;DHT22;4635;48.686;9.008;2022-07-17T17:30:28;26.80;1.00
9201;DHT22;4635;48.686;9.008;2022-07-17T17:32:58;26.90;1.00
9201;DHT22;4635;48.686;9.008;2022-07-17T17:35:36;26.90;1.00
9201;DHT22;4635;48.686;9.008;2022-07-17T17:38:03;26.80;1.00
9201;DHT22;4635;48.686;9.008;2022-07-17T17:40:35;26.80;1.00
9201;DHT22;4635;48.686;9.008;2022-07-17T17:43:18;26.70;1.00
9201;DHT22;4635;48.686;9.008;2022-07-17T17:45:48;26.60;1.00
9201;DHT22;4635;48.686;9.008;2022-07-17T17:48:20;26.50;1.00
9201;DHT22;4635;48.686;9.008;2022-07-17T17:50:48;26.40;1.00
9201;DHT22;4635;48.686;9.008;2022-07-17T17:53:24;26.30;1.00
9201;DHT22;4635;48.686;9.008;2022-07-17T17:55:59;26.30;1.00
9201;DHT22;4635;48.686;9.008;2022-07-17T17:58:30;26.30;1.00
9201;DHT22;4635;48.686;9.008;2022-07-17T18:00:58;26.30;1.00
9201;DHT22;4635;48.686;9.008;2022-07-17T18:03:28;26.30;1.00
9201;DHT22;4635;48.686;9.008;2022-07-17T18:06:01;26.20;1.00
9201;DHT22;4635;48.686;9.008;2022-07-17T18:08:32;26.20;1.00
9201;DHT22;4635;48.686;9.008;2022-07-17T18:11:05;26.20;1.00
9201;DHT22;4635;48.686;9.008;2022-07-17T18:13:37;26.20;1.00
9201;DHT22;4635;48.686;9.008;2022-07-17T18:16:18;26.20;1.00
9201;DHT22;4635;48.686;9.008;2022-07-17T18:18:48;26.10;1.00
9201;DHT22;4635;48.686;9.008;2022-07-17T18:21:33;26.00;1.00
9201;DHT22;4635;48.686;9.008;2022-07-17T18:24:17;25.90;1.00
9201;DHT22;4635;48.686;9.008;2022-07-17T18:27:01;25.90;1.00
9201;DHT22;4635;48.686;9.008;2022-07-17T18:29:56;25.90;1.00
9201;DHT22;4635;48.686;9.008;2022-07-17T18:32:35;25.80;1.00
9201;DHT22;4635;48.686;9.008;2022-07-17T18:35:07;25.80;1.00